sensor_id;sensor_type;location;lat;lon;timestamp;P1;durP1;ratioP1;P2;durP2;ratioP2
10341;SDS011;5216;54.602;18.356;2023-04-24T00:00:06;5.90;;;5.40;;
10341;SDS011;5216;54.602;18.356;2023-04-24T00:02:36;6.43;;;5.83;;
10341;SDS011;5216;54.602;18.356;2023-04-24T00:05:07;7.10;;;6.43;;
10341;SDS011;5216;54.602;18.356;2023-04-24T00:07:34;7.30;;;6.60;;
10341;SDS011;5216;54.602;18.356;2023-04-24T00:10:01;7.30;;;6.60;;
10341;SDS011;5216;54.602;18.356;2023-04-24T00:12:27;6.70;;;6.10;;
10341;SDS011;5216;54.602;18.356;2023-04-24T00:15:06;6.30;;;5.47;;
10341;SDS011;5216;54.602;18.356;2023-04-24T00:17:33;6.63;;;5.83;;
10341;SDS011;5216;54.602;18.356;2023-04-24T00:20:12;6.77;;;6.17;;
10341;SDS011;5216;54.602;18.356;2023-04-24T00:22:41;6.00;;;5.43;;
10341;SDS011;5216;54.602;18.356;2023-04-24T00:25:07;5.60;;;5.10;;
10341;SDS011;5216;54.602;18.356;2023-04-24T00:27:34;5.57;;;5.07;;
10341;SDS011;5216;54.602;18.356;2023-04-24T00:30:03;5.43;;;5.03;;
10341;SDS011;5216;54.602;18.356;2023-04-24T00:32:29;6.87;;;5.10;;
10341;SDS011;5216;54.602;18.356;2023-04-24T00:35:05;6.43;;;5.07;;
10341;SDS011;5216;54.602;18.356;2023-04-24T00:37:32;6.23;;;5.63;;
10341;SDS011;5216;54.602;18.356;2023-04-24T00:39:58;6.57;;;5.60;;
10341;SDS011;5216;54.602;18.356;2023-04-24T00:42:25;7.03;;;6.40;;
10341;SDS011;5216;54.602;18.356;2023-04-24T00:44:52;7.30;;;6.50;;
10341;SDS011;5216;54.602;18.356;2023-04-24T01:06:39;8.63;;;7.83;;
10341;SDS011;5216;54.602;18.356;2023-04-24T01:09:06;8.10;;;7.30;;
10341;SDS011;5216;54.602;18.356;2023-04-24T01:11:36;9.27;;;8.37;;
10341;SDS011;5216;54.602;18.356;2023-04-24T01:14:03;9.50;;;8.10;;
10341;SDS011;5216;54.602;18.356;2023-04-24T01:16:48;8.57;;;7.77;;
10341;SDS011;5216;54.602;18.356;2023-04-24T01:19:15;8.40;;;6.90;;
10341;SDS011;5216;54.602;18.356;2023-04-24T01:21:42;7.97;;;6.70;;
10341;SDS011;5216;54.602;18.356;2023-04-24T01:24:09;8.23;;;7.43;;
10341;SDS011;5216;54.602;18.356;2023-04-24T01:26:36;8.10;;;7.30;;
10341;SDS011;5216;54.602;18.356;2023-04-24T01:29:03;8.67;;;7.10;;
10341;SDS011;5216;54.602;18.356;2023-04-24T01:31:29;8.07;;;7.27;;
10341;SDS011;5216;54.602;18.356;2023-04-24T01:33:56;7.57;;;6.87;;
10341;SDS011;5216;54.602;18.356;2023-04-24T01:36:23;8.07;;;7.27;;
10341;SDS011;5216;54.602;18.356;2023-04-24T01:38:52;7.77;;;6.97;;
10341;SDS011;5216;54.602;18.356;2023-04-24T01:41:19;8.20;;;7.40;;
10341;SDS011;5216;54.602;18.356;2023-04-24T01:43:46;8.03;;;7.23;;
10341;SDS011;5216;54.602;18.356;2023-04-24T01:46:13;7.67;;;6.97;;
10341;SDS011;5216;54.602;18.356;2023-04-24T01:48:47;8.40;;;7.40;;
10341;SDS011;5216;54.602;18.356;2023-04-24T01:51:14;8.40;;;7.60;;
10341;SDS011;5216;54.602;18.356;2023-04-24T01:53:41;8.40;;;7.40;;
10341;SDS011;5216;54.602;18.356;2023-04-24T01:56:07;10.27;;;7.90;;
10341;SDS011;5216;54.602;18.356;2023-04-24T01:58:35;9.60;;;7.57;;
10341;SDS011;5216;54.602;18.356;2023-04-24T02:01:20;9.13;;;7.80;;
10341;SDS011;5216;54.602;18.356;2023-04-24T02:03:47;9.43;;;8.20;;
10341;SDS011;5216;54.602;18.356;2023-04-24T02:06:14;8.37;;;7.53;;
10341;SDS011;5216;54.602;18.356;2023-04-24T02:08:41;8.43;;;7.63;;
10341;SDS011;5216;54.602;18.356;2023-04-24T02:11:10;9.07;;;8.20;;
10341;SDS011;5216;54.602;18.356;2023-04-24T02:13:37;8.73;;;7.93;;
10341;SDS011;5216;54.602;18.356;2023-04-24T02:16:03;13.57;;;7.93;;
10341;SDS011;5216;54.602;18.356;2023-04-24T02:22:18;8.60;;;7.73;;
10341;SDS011;5216;54.602;18.356;2023-04-24T02:24:44;9.07;;;8.17;;
10341;SDS011;5216;54.602;18.356;2023-04-24T02:27:11;8.80;;;7.90;;
10341;SDS011;5216;54.602;18.356;2023-04-24T02:29:38;8.23;;;7.23;;
10341;SDS011;5216;54.602;18.356;2023-04-24T02:32:23;9.37;;;7.37;;
10341;SDS011;5216;54.602;18.356;2023-04-24T02:34:50;8.23;;;7.43;;
10341;SDS011;5216;54.602;18.356;2023-04-24T02:37:16;8.03;;;7.33;;
10341;SDS011;5216;54.602;18.356;2023-04-24T02:39:43;7.43;;;6.73;;
10341;SDS011;5216;54.602;18.356;2023-04-24T02:42:10;7.70;;;7.00;;
10341;SDS011;5216;54.602;18.356;2023-04-24T02:48:24;7.67;;;6.97;;
10341;SDS011;5216;54.602;18.356;2023-04-24T02:50:50;11.27;;;8.07;;
10341;SDS011;5216;54.602;18.356;2023-04-24T02:53:17;10.00;;;9.00;;
10341;SDS011;5216;54.602;18.356;2023-04-24T02:55:44;10.77;;;9.77;;
10341;SDS011;5216;54.602;18.356;2023-04-24T02:58:12;11.60;;;10.40;;
10341;SDS011;5216;54.602;18.356;2023-04-24T03:00:39;14.50;;;10.63;;
10341;SDS011;5216;54.602;18.356;2023-04-24T03:03:07;13.50;;;11.40;;
10341;SDS011;5216;54.602;18.356;2023-04-24T03:09:22;17.70;;;12.63;;
10341;SDS011;5216;54.602;18.356;2023-04-24T03:11:49;17.13;;;13.30;;
10341;SDS011;5216;54.602;18.356;2023-04-24T03:14:15;18.10;;;13.60;;
10341;SDS011;5216;54.602;18.356;2023-04-24T03:16:42;19.07;;;13.97;;
10341;SDS011;5216;54.602;18.356;2023-04-24T03:19:09;21.27;;;15.10;;
10341;SDS011;5216;54.602;18.356;2023-04-24T03:21:35;17.67;;;15.07;;
10341;SDS011;5216;54.602;18.356;2023-04-24T03:24:07;20.03;;;15.00;;
10341;SDS011;5216;54.602;18.356;2023-04-24T03:26:34;20.63;;;15.00;;
10341;SDS011;5216;54.602;18.356;2023-04-24T03:29:06;22.90;;;16.30;;
10341;SDS011;5216;54.602;18.356;2023-04-24T03:31:35;23.67;;;17.27;;
10341;SDS011;5216;54.602;18.356;2023-04-24T03:34:05;23.13;;;17.03;;
10341;SDS011;5216;54.602;18.356;2023-04-24T03:36:32;23.83;;;18.17;;
10341;SDS011;5216;54.602;18.356;2023-04-24T03:38:58;27.43;;;17.90;;
10341;SDS011;5216;54.602;18.356;2023-04-24T03:41:25;26.33;;;19.33;;
10341;SDS011;5216;54.602;18.356;2023-04-24T03:43:52;22.17;;;17.97;;
10341;SDS011;5216;54.602;18.356;2023-04-24T03:46:18;24.53;;;16.97;;
10341;SDS011;5216;54.602;18.356;2023-04-24T03:49:03;25.37;;;18.40;;
10341;SDS011;5216;54.602;18.356;2023-04-24T03:51:30;23.17;;;17.30;;
10341;SDS011;5216;54.602;18.356;2023-04-24T03:53:57;22.00;;;16.57;;
10341;SDS011;5216;54.602;18.356;2023-04-24T03:56:24;24.87;;;16.20;;
10341;SDS011;5216;54.602;18.356;2023-04-24T03:58:51;21.37;;;16.23;;
10341;SDS011;5216;54.602;18.356;2023-04-24T04:01:17;21.60;;;15.77;;
10341;SDS011;5216;54.602;18.356;2023-04-24T04:03:45;20.80;;;15.63;;
10341;SDS011;5216;54.602;18.356;2023-04-24T04:06:12;19.70;;;15.40;;
10341;SDS011;5216;54.602;18.356;2023-04-24T04:08:39;23.90;;;16.37;;
10341;SDS011;5216;54.602;18.356;2023-04-24T04:11:06;25.17;;;16.43;;
10341;SDS011;5216;54.602;18.356;2023-04-24T04:13:32;26.33;;;16.97;;
10341;SDS011;5216;54.602;18.356;2023-04-24T04:15:59;23.30;;;15.90;;
10341;SDS011;5216;54.602;18.356;2023-04-24T04:18:26;25.20;;;16.63;;
10341;SDS011;5216;54.602;18.356;2023-04-24T04:20:52;22.63;;;15.90;;
10341;SDS011;5216;54.602;18.356;2023-04-24T04:23:20;21.03;;;15.63;;
10341;SDS011;5216;54.602;18.356;2023-04-24T04:25:46;24.53;;;16.97;;
10341;SDS011;5216;54.602;18.356;2023-04-24T04:28:13;23.93;;;16.93;;
10341;SDS011;5216;54.602;18.356;2023-04-24T04:30:39;24.47;;;16.40;;
10341;SDS011;5216;54.602;18.356;2023-04-24T04:33:06;27.10;;;16.53;;
10341;SDS011;5216;54.602;18.356;2023-04-24T04:35:34;23.50;;;14.93;;
10341;SDS011;5216;54.602;18.356;2023-04-24T04:48:55;25.77;;;13.17;;
10341;SDS011;5216;54.602;18.356;2023-04-24T04:51:22;18.00;;;13.07;;
10341;SDS011;5216;54.602;18.356;2023-04-24T04:53:49;23.90;;;14.90;;
10341;SDS011;5216;54.602;18.356;2023-04-24T04:56:16;24.37;;;14.17;;
10341;SDS011;5216;54.602;18.356;2023-04-24T04:58:42;23.23;;;15.53;;
10341;SDS011;5216;54.602;18.356;2023-04-24T05:01:09;20.23;;;15.63;;
10341;SDS011;5216;54.602;18.356;2023-04-24T05:03:38;23.00;;;15.87;;
10341;SDS011;5216;54.602;18.356;2023-04-24T05:06:05;20.47;;;15.80;;
10341;SDS011;5216;54.602;18.356;2023-04-24T05:08:32;21.20;;;15.03;;
10341;SDS011;5216;54.602;18.356;2023-04-24T05:10:59;26.30;;;14.60;;
10341;SDS011;5216;54.602;18.356;2023-04-24T05:13:26;19.73;;;13.80;;
10341;SDS011;5216;54.602;18.356;2023-04-24T05:16:05;20.73;;;14.20;;
10341;SDS011;5216;54.602;18.356;2023-04-24T05:18:32;19.63;;;13.77;;
10341;SDS011;5216;54.602;18.356;2023-04-24T05:20:59;19.10;;;13.80;;
10341;SDS011;5216;54.602;18.356;2023-04-24T05:23:26;16.70;;;13.63;;
10341;SDS011;5216;54.602;18.356;2023-04-24T05:25:52;18.30;;;14.00;;
10341;SDS011;5216;54.602;18.356;2023-04-24T05:28:19;16.70;;;13.63;;
10341;SDS011;5216;54.602;18.356;2023-04-24T05:30:49;19.77;;;13.80;;
10341;SDS011;5216;54.602;18.356;2023-04-24T05:33:16;16.60;;;13.73;;
10341;SDS011;5216;54.602;18.356;2023-04-24T05:35:43;16.10;;;12.80;;
10341;SDS011;5216;54.602;18.356;2023-04-24T05:38:13;14.73;;;12.83;;
10341;SDS011;5216;54.602;18.356;2023-04-24T05:40:43;17.73;;;13.30;;
10341;SDS011;5216;54.602;18.356;2023-04-24T05:43:09;14.43;;;12.63;;
10341;SDS011;5216;54.602;18.356;2023-04-24T05:53:10;15.03;;;12.90;;
10341;SDS011;5216;54.602;18.356;2023-04-24T05:55:37;16.73;;;13.00;;
10341;SDS011;5216;54.602;18.356;2023-04-24T05:58:03;16.73;;;13.00;;
10341;SDS011;5216;54.602;18.356;2023-04-24T06:00:30;16.87;;;13.17;;
10341;SDS011;5216;54.602;18.356;2023-04-24T06:02:56;14.20;;;12.40;;
10341;SDS011;5216;54.602;18.356;2023-04-24T06:05:24;15.77;;;13.13;;
10341;SDS011;5216;54.602;18.356;2023-04-24T06:07:53;17.33;;;12.47;;
10341;SDS011;5216;54.602;18.356;2023-04-24T06:10:21;16.90;;;12.50;;
10341;SDS011;5216;54.602;18.356;2023-04-24T06:12:48;14.60;;;12.10;;
10341;SDS011;5216;54.602;18.356;2023-04-24T06:15:14;13.83;;;11.03;;
10341;SDS011;5216;54.602;18.356;2023-04-24T06:17:41;15.13;;;11.47;;
10341;SDS011;5216;54.602;18.356;2023-04-24T06:20:10;13.20;;;11.60;;
10341;SDS011;5216;54.602;18.356;2023-04-24T06:22:37;16.93;;;12.67;;
10341;SDS011;5216;54.602;18.356;2023-04-24T06:25:12;13.20;;;11.67;;
10341;SDS011;5216;54.602;18.356;2023-04-24T06:27:39;14.47;;;12.97;;
10341;SDS011;5216;54.602;18.356;2023-04-24T06:30:05;15.73;;;12.80;;
10341;SDS011;5216;54.602;18.356;2023-04-24T06:32:32;14.80;;;11.13;;
10341;SDS011;5216;54.602;18.356;2023-04-24T06:35:02;15.67;;;11.47;;
10341;SDS011;5216;54.602;18.356;2023-04-24T06:37:29;20.03;;;13.63;;
10341;SDS011;5216;54.602;18.356;2023-04-24T06:39:55;14.90;;;11.13;;
10341;SDS011;5216;54.602;18.356;2023-04-24T06:42:22;12.17;;;10.27;;
10341;SDS011;5216;54.602;18.356;2023-04-24T06:44:52;12.30;;;9.67;;
10341;SDS011;5216;54.602;18.356;2023-04-24T06:47:19;12.60;;;9.43;;
10341;SDS011;5216;54.602;18.356;2023-04-24T06:49:45;12.50;;;9.30;;
10341;SDS011;5216;54.602;18.356;2023-04-24T06:52:15;13.70;;;10.43;;
10341;SDS011;5216;54.602;18.356;2023-04-24T06:54:41;17.87;;;13.70;;
10341;SDS011;5216;54.602;18.356;2023-04-24T06:57:08;9.33;;;7.77;;
10341;SDS011;5216;54.602;18.356;2023-04-24T06:59:34;9.80;;;8.20;;
10341;SDS011;5216;54.602;18.356;2023-04-24T07:02:01;8.40;;;7.10;;
10341;SDS011;5216;54.602;18.356;2023-04-24T07:04:30;8.30;;;6.53;;
10341;SDS011;5216;54.602;18.356;2023-04-24T07:06:57;8.73;;;6.90;;
10341;SDS011;5216;54.602;18.356;2023-04-24T07:09:24;7.70;;;6.93;;
10341;SDS011;5216;54.602;18.356;2023-04-24T07:11:52;8.30;;;6.73;;
10341;SDS011;5216;54.602;18.356;2023-04-24T07:14:19;9.37;;;6.47;;
10341;SDS011;5216;54.602;18.356;2023-04-24T07:16:46;7.97;;;5.70;;
10341;SDS011;5216;54.602;18.356;2023-04-24T07:19:13;6.80;;;5.50;;
10341;SDS011;5216;54.602;18.356;2023-04-24T07:21:40;10.77;;;6.00;;
10341;SDS011;5216;54.602;18.356;2023-04-24T07:24:07;8.10;;;5.50;;
10341;SDS011;5216;54.602;18.356;2023-04-24T07:26:38;6.27;;;4.90;;
10341;SDS011;5216;54.602;18.356;2023-04-24T07:29:07;7.50;;;4.53;;
10341;SDS011;5216;54.602;18.356;2023-04-24T07:31:34;4.07;;;3.63;;
10341;SDS011;5216;54.602;18.356;2023-04-24T07:34:01;4.70;;;3.60;;
10341;SDS011;5216;54.602;18.356;2023-04-24T07:36:28;4.87;;;3.80;;
10341;SDS011;5216;54.602;18.356;2023-04-24T07:38:54;6.90;;;4.67;;
10341;SDS011;5216;54.602;18.356;2023-04-24T07:41:28;7.00;;;4.70;;
10341;SDS011;5216;54.602;18.356;2023-04-24T07:43:55;9.83;;;5.00;;
10341;SDS011;5216;54.602;18.356;2023-04-24T07:46:22;7.03;;;5.03;;
10341;SDS011;5216;54.602;18.356;2023-04-24T07:48:49;9.27;;;5.80;;
10341;SDS011;5216;54.602;18.356;2023-04-24T07:51:35;7.70;;;5.90;;
10341;SDS011;5216;54.602;18.356;2023-04-24T07:54:04;6.50;;;5.80;;
10341;SDS011;5216;54.602;18.356;2023-04-24T07:56:34;7.87;;;6.73;;
10341;SDS011;5216;54.602;18.356;2023-04-24T07:59:02;8.00;;;6.70;;
10341;SDS011;5216;54.602;18.356;2023-04-24T08:01:29;7.70;;;6.40;;
10341;SDS011;5216;54.602;18.356;2023-04-24T08:03:55;7.17;;;6.47;;
10341;SDS011;5216;54.602;18.356;2023-04-24T08:06:22;8.17;;;5.70;;
10341;SDS011;5216;54.602;18.356;2023-04-24T08:08:49;6.57;;;5.40;;
10341;SDS011;5216;54.602;18.356;2023-04-24T08:11:17;6.50;;;5.67;;
10341;SDS011;5216;54.602;18.356;2023-04-24T08:13:44;6.90;;;5.60;;
10341;SDS011;5216;54.602;18.356;2023-04-24T08:16:11;6.67;;;5.13;;
10341;SDS011;5216;54.602;18.356;2023-04-24T08:18:37;7.17;;;5.70;;
10341;SDS011;5216;54.602;18.356;2023-04-24T08:21:04;6.70;;;5.97;;
10341;SDS011;5216;54.602;18.356;2023-04-24T08:23:31;7.10;;;6.40;;
10341;SDS011;5216;54.602;18.356;2023-04-24T08:25:57;7.53;;;6.67;;
10341;SDS011;5216;54.602;18.356;2023-04-24T08:28:25;8.37;;;6.47;;
10341;SDS011;5216;54.602;18.356;2023-04-24T08:30:52;6.63;;;5.97;;
10341;SDS011;5216;54.602;18.356;2023-04-24T08:33:24;9.07;;;6.13;;
10341;SDS011;5216;54.602;18.356;2023-04-24T08:35:50;8.20;;;6.20;;
10341;SDS011;5216;54.602;18.356;2023-04-24T08:38:17;8.57;;;6.47;;
10341;SDS011;5216;54.602;18.356;2023-04-24T08:40:44;7.53;;;6.10;;
10341;SDS011;5216;54.602;18.356;2023-04-24T08:43:12;6.67;;;5.97;;
10341;SDS011;5216;54.602;18.356;2023-04-24T08:52:56;8.43;;;5.17;;
10341;SDS011;5216;54.602;18.356;2023-04-24T08:55:23;6.50;;;4.97;;
10341;SDS011;5216;54.602;18.356;2023-04-24T08:57:51;5.50;;;5.00;;
10341;SDS011;5216;54.602;18.356;2023-04-24T09:00:22;5.03;;;4.53;;
10341;SDS011;5216;54.602;18.356;2023-04-24T09:03:06;8.27;;;6.90;;
10341;SDS011;5216;54.602;18.356;2023-04-24T09:05:33;6.37;;;5.77;;
10341;SDS011;5216;54.602;18.356;2023-04-24T09:08:00;6.23;;;5.53;;
10341;SDS011;5216;54.602;18.356;2023-04-24T09:10:28;6.10;;;5.50;;
10341;SDS011;5216;54.602;18.356;2023-04-24T09:12:59;7.80;;;5.70;;
10341;SDS011;5216;54.602;18.356;2023-04-24T09:15:28;6.43;;;5.60;;
10341;SDS011;5216;54.602;18.356;2023-04-24T09:17:55;9.33;;;5.57;;
10341;SDS011;5216;54.602;18.356;2023-04-24T09:20:23;6.30;;;5.70;;
10341;SDS011;5216;54.602;18.356;2023-04-24T09:22:53;6.50;;;5.67;;
10341;SDS011;5216;54.602;18.356;2023-04-24T09:25:20;6.00;;;5.40;;
10341;SDS011;5216;54.602;18.356;2023-04-24T09:31:15;8.30;;;7.37;;
10341;SDS011;5216;54.602;18.356;2023-04-24T09:33:54;7.60;;;6.80;;
10341;SDS011;5216;54.602;18.356;2023-04-24T09:38:57;7.97;;;7.17;;
10341;SDS011;5216;54.602;18.356;2023-04-24T09:41:43;8.07;;;7.17;;
10341;SDS011;5216;54.602;18.356;2023-04-24T09:44:11;21.13;;;18.47;;
10341;SDS011;5216;54.602;18.356;2023-04-24T09:46:38;10.40;;;7.77;;
10341;SDS011;5216;54.602;18.356;2023-04-24T09:49:12;8.53;;;7.60;;
10341;SDS011;5216;54.602;18.356;2023-04-24T09:51:39;11.67;;;7.80;;
10341;SDS011;5216;54.602;18.356;2023-04-24T09:54:14;8.83;;;7.20;;
10341;SDS011;5216;54.602;18.356;2023-04-24T09:56:42;9.03;;;7.90;;
10341;SDS011;5216;54.602;18.356;2023-04-24T09:59:10;11.27;;;7.93;;
10341;SDS011;5216;54.602;18.356;2023-04-24T10:01:37;10.57;;;7.87;;
10341;SDS011;5216;54.602;18.356;2023-04-24T10:04:04;8.53;;;7.60;;
10341;SDS011;5216;54.602;18.356;2023-04-24T10:06:35;8.90;;;7.53;;
10341;SDS011;5216;54.602;18.356;2023-04-24T10:09:02;10.27;;;8.30;;
10341;SDS011;5216;54.602;18.356;2023-04-24T10:11:30;9.13;;;8.23;;
10341;SDS011;5216;54.602;18.356;2023-04-24T10:13:56;14.07;;;8.30;;
10341;SDS011;5216;54.602;18.356;2023-04-24T10:16:23;9.27;;;7.83;;
10341;SDS011;5216;54.602;18.356;2023-04-24T10:18:50;8.40;;;7.50;;
10341;SDS011;5216;54.602;18.356;2023-04-24T10:21:17;9.27;;;7.33;;
10341;SDS011;5216;54.602;18.356;2023-04-24T10:23:44;8.50;;;7.57;;
10341;SDS011;5216;54.602;18.356;2023-04-24T10:26:13;11.20;;;7.53;;
10341;SDS011;5216;54.602;18.356;2023-04-24T10:28:44;9.37;;;8.43;;
10341;SDS011;5216;54.602;18.356;2023-04-24T10:31:12;8.73;;;7.93;;
10341;SDS011;5216;54.602;18.356;2023-04-24T10:33:49;9.53;;;8.63;;
10341;SDS011;5216;54.602;18.356;2023-04-24T10:36:16;10.60;;;8.47;;
10341;SDS011;5216;54.602;18.356;2023-04-24T10:38:43;9.77;;;8.77;;
10341;SDS011;5216;54.602;18.356;2023-04-24T10:41:12;11.13;;;8.30;;
10341;SDS011;5216;54.602;18.356;2023-04-24T10:44:04;13.40;;;9.00;;
10341;SDS011;5216;54.602;18.356;2023-04-24T10:46:31;12.77;;;8.13;;
10341;SDS011;5216;54.602;18.356;2023-04-24T10:49:11;11.57;;;9.17;;
10341;SDS011;5216;54.602;18.356;2023-04-24T10:56:50;12.00;;;8.57;;
10341;SDS011;5216;54.602;18.356;2023-04-24T10:59:26;9.00;;;8.10;;
10341;SDS011;5216;54.602;18.356;2023-04-24T11:01:53;10.80;;;8.23;;
10341;SDS011;5216;54.602;18.356;2023-04-24T11:04:31;9.67;;;7.90;;
10341;SDS011;5216;54.602;18.356;2023-04-24T11:07:04;10.40;;;8.43;;
10341;SDS011;5216;54.602;18.356;2023-04-24T11:09:40;9.57;;;8.33;;
10341;SDS011;5216;54.602;18.356;2023-04-24T11:12:10;13.10;;;9.47;;
10341;SDS011;5216;54.602;18.356;2023-04-24T11:17:36;14.20;;;8.67;;
10341;SDS011;5216;54.602;18.356;2023-04-24T11:20:07;14.93;;;8.97;;
10341;SDS011;5216;54.602;18.356;2023-04-24T11:22:53;10.27;;;8.23;;
10341;SDS011;5216;54.602;18.356;2023-04-24T11:25:21;13.03;;;8.00;;
10341;SDS011;5216;54.602;18.356;2023-04-24T11:27:48;15.53;;;9.77;;
10341;SDS011;5216;54.602;18.356;2023-04-24T11:30:19;12.40;;;11.17;;
10341;SDS011;5216;54.602;18.356;2023-04-24T11:32:47;9.33;;;8.43;;
10341;SDS011;5216;54.602;18.356;2023-04-24T11:35:18;9.63;;;7.87;;
10341;SDS011;5216;54.602;18.356;2023-04-24T11:37:46;10.93;;;7.25;;
10341;SDS011;5216;54.602;18.356;2023-04-24T11:40:33;8.77;;;6.60;;
10341;SDS011;5216;54.602;18.356;2023-04-24T11:42:59;10.95;;;9.88;;
10341;SDS011;5216;54.602;18.356;2023-04-24T11:48:19;14.57;;;6.88;;
10341;SDS011;5216;54.602;18.356;2023-04-24T11:50:49;13.50;;;7.33;;
10341;SDS011;5216;54.602;18.356;2023-04-24T11:53:18;8.05;;;7.25;;
10341;SDS011;5216;54.602;18.356;2023-04-24T11:55:44;7.53;;;6.18;;
10341;SDS011;5216;54.602;18.356;2023-04-24T11:58:11;8.00;;;6.75;;
10341;SDS011;5216;54.602;18.356;2023-04-24T12:00:41;9.38;;;7.38;;
10341;SDS011;5216;54.602;18.356;2023-04-24T12:03:08;8.23;;;7.38;;
10341;SDS011;5216;54.602;18.356;2023-04-24T12:05:36;14.00;;;8.40;;
10341;SDS011;5216;54.602;18.356;2023-04-24T12:08:03;9.95;;;7.72;;
10341;SDS011;5216;54.602;18.356;2023-04-24T12:10:30;9.70;;;7.50;;
10341;SDS011;5216;54.602;18.356;2023-04-24T12:12:58;8.43;;;7.40;;
10341;SDS011;5216;54.602;18.356;2023-04-24T12:15:25;9.00;;;7.47;;
10341;SDS011;5216;54.602;18.356;2023-04-24T12:17:52;8.05;;;7.25;;
10341;SDS011;5216;54.602;18.356;2023-04-24T12:20:23;9.65;;;7.20;;
10341;SDS011;5216;54.602;18.356;2023-04-24T12:22:51;13.02;;;11.75;;
10341;SDS011;5216;54.602;18.356;2023-04-24T12:25:27;9.60;;;8.02;;
10341;SDS011;5216;54.602;18.356;2023-04-24T12:27:54;10.23;;;9.25;;
10341;SDS011;5216;54.602;18.356;2023-04-24T12:30:25;8.00;;;6.43;;
10341;SDS011;5216;54.602;18.356;2023-04-24T12:36:38;7.63;;;5.72;;
10341;SDS011;5216;54.602;18.356;2023-04-24T12:39:13;8.43;;;5.57;;
10341;SDS011;5216;54.602;18.356;2023-04-24T12:41:48;6.95;;;5.38;;
10341;SDS011;5216;54.602;18.356;2023-04-24T12:44:19;5.97;;;5.38;;
10341;SDS011;5216;54.602;18.356;2023-04-24T12:46:46;9.15;;;5.85;;
10341;SDS011;5216;54.602;18.356;2023-04-24T12:49:12;6.30;;;5.18;;
10341;SDS011;5216;54.602;18.356;2023-04-24T12:55:28;4.82;;;4.35;;
10341;SDS011;5216;54.602;18.356;2023-04-24T12:57:54;6.00;;;4.00;;
10341;SDS011;5216;54.602;18.356;2023-04-24T13:00:22;5.38;;;4.22;;
10341;SDS011;5216;54.602;18.356;2023-04-24T13:02:49;4.88;;;4.18;;
10341;SDS011;5216;54.602;18.356;2023-04-24T13:05:15;25.42;;;19.50;;
10341;SDS011;5216;54.602;18.356;2023-04-24T13:07:51;6.07;;;4.20;;
10341;SDS011;5216;54.602;18.356;2023-04-24T13:10:18;10.65;;;3.75;;
10341;SDS011;5216;54.602;18.356;2023-04-24T13:12:45;4.82;;;4.00;;
10341;SDS011;5216;54.602;18.356;2023-04-24T13:15:12;4.30;;;3.60;;
10341;SDS011;5216;54.602;18.356;2023-04-24T13:17:42;7.80;;;3.78;;
10341;SDS011;5216;54.602;18.356;2023-04-24T13:20:09;7.45;;;3.70;;
10341;SDS011;5216;54.602;18.356;2023-04-24T13:22:36;4.75;;;3.50;;
10341;SDS011;5216;54.602;18.356;2023-04-24T13:25:03;3.97;;;3.38;;
10341;SDS011;5216;54.602;18.356;2023-04-24T13:27:32;6.75;;;3.40;;
10341;SDS011;5216;54.602;18.356;2023-04-24T13:29:58;4.43;;;3.20;;
10341;SDS011;5216;54.602;18.356;2023-04-24T13:32:25;4.75;;;3.55;;
10341;SDS011;5216;54.602;18.356;2023-04-24T13:34:52;4.95;;;2.70;;
10341;SDS011;5216;54.602;18.356;2023-04-24T13:37:19;4.13;;;2.90;;
10341;SDS011;5216;54.602;18.356;2023-04-24T13:39:49;5.03;;;2.65;;
10341;SDS011;5216;54.602;18.356;2023-04-24T13:42:17;4.85;;;2.83;;
10341;SDS011;5216;54.602;18.356;2023-04-24T13:44:44;4.72;;;2.83;;
10341;SDS011;5216;54.602;18.356;2023-04-24T13:47:11;3.63;;;2.60;;
10341;SDS011;5216;54.602;18.356;2023-04-24T13:49:38;4.95;;;2.85;;
10341;SDS011;5216;54.602;18.356;2023-04-24T13:52:04;3.88;;;2.60;;
10341;SDS011;5216;54.602;18.356;2023-04-24T13:54:31;3.72;;;2.90;;
10341;SDS011;5216;54.602;18.356;2023-04-24T13:56:58;4.22;;;2.67;;
10341;SDS011;5216;54.602;18.356;2023-04-24T13:59:25;5.00;;;3.15;;
10341;SDS011;5216;54.602;18.356;2023-04-24T14:01:51;4.13;;;3.03;;
10341;SDS011;5216;54.602;18.356;2023-04-24T14:04:18;4.43;;;3.33;;
10341;SDS011;5216;54.602;18.356;2023-04-24T14:06:45;8.20;;;5.50;;
10341;SDS011;5216;54.602;18.356;2023-04-24T14:20:50;4.60;;;2.80;;
10341;SDS011;5216;54.602;18.356;2023-04-24T14:23:17;4.85;;;2.80;;
10341;SDS011;5216;54.602;18.356;2023-04-24T14:25:44;6.32;;;3.72;;
10341;SDS011;5216;54.602;18.356;2023-04-24T14:28:12;4.35;;;3.10;;
10341;SDS011;5216;54.602;18.356;2023-04-24T14:30:38;3.28;;;2.90;;
10341;SDS011;5216;54.602;18.356;2023-04-24T14:33:06;4.45;;;3.42;;
10341;SDS011;5216;54.602;18.356;2023-04-24T14:35:33;2.90;;;2.60;;
10341;SDS011;5216;54.602;18.356;2023-04-24T14:38:01;3.55;;;3.08;;
10341;SDS011;5216;54.602;18.356;2023-04-24T14:40:28;4.13;;;3.10;;
10341;SDS011;5216;54.602;18.356;2023-04-24T14:43:15;3.13;;;2.83;;
10341;SDS011;5216;54.602;18.356;2023-04-24T14:45:41;4.10;;;3.40;;
10341;SDS011;5216;54.602;18.356;2023-04-24T14:48:08;3.35;;;3.05;;
10341;SDS011;5216;54.602;18.356;2023-04-24T14:50:35;6.03;;;4.22;;
10341;SDS011;5216;54.602;18.356;2023-04-24T14:53:02;7.38;;;4.22;;
10341;SDS011;5216;54.602;18.356;2023-04-24T14:55:28;4.50;;;3.70;;
10341;SDS011;5216;54.602;18.356;2023-04-24T14:58:04;11.88;;;10.32;;
10341;SDS011;5216;54.602;18.356;2023-04-24T15:00:31;6.93;;;3.30;;
10341;SDS011;5216;54.602;18.356;2023-04-24T15:02:57;3.42;;;3.13;;
10341;SDS011;5216;54.602;18.356;2023-04-24T15:05:24;4.43;;;3.50;;
10341;SDS011;5216;54.602;18.356;2023-04-24T15:07:51;8.40;;;3.30;;
10341;SDS011;5216;54.602;18.356;2023-04-24T15:10:18;6.53;;;3.05;;
10341;SDS011;5216;54.602;18.356;2023-04-24T15:12:45;5.30;;;3.72;;
10341;SDS011;5216;54.602;18.356;2023-04-24T15:15:11;5.10;;;4.40;;
10341;SDS011;5216;54.602;18.356;2023-04-24T15:17:38;8.35;;;7.43;;
10341;SDS011;5216;54.602;18.356;2023-04-24T15:20:05;9.32;;;6.90;;
10341;SDS011;5216;54.602;18.356;2023-04-24T15:22:36;7.32;;;6.32;;
10341;SDS011;5216;54.602;18.356;2023-04-24T15:25:03;6.50;;;4.50;;
10341;SDS011;5216;54.602;18.356;2023-04-24T15:27:42;9.43;;;6.70;;
10341;SDS011;5216;54.602;18.356;2023-04-24T15:30:09;8.10;;;5.47;;
10341;SDS011;5216;54.602;18.356;2023-04-24T15:32:37;6.22;;;4.15;;
10341;SDS011;5216;54.602;18.356;2023-04-24T15:35:09;4.20;;;3.53;;
10341;SDS011;5216;54.602;18.356;2023-04-24T15:37:36;7.30;;;3.70;;
10341;SDS011;5216;54.602;18.356;2023-04-24T15:40:03;4.50;;;4.10;;
10341;SDS011;5216;54.602;18.356;2023-04-24T15:42:31;4.10;;;3.70;;
10341;SDS011;5216;54.602;18.356;2023-04-24T15:44:58;6.88;;;4.32;;
10341;SDS011;5216;54.602;18.356;2023-04-24T15:47:24;4.60;;;4.20;;
10341;SDS011;5216;54.602;18.356;2023-04-24T15:49:52;6.40;;;4.78;;
10341;SDS011;5216;54.602;18.356;2023-04-24T15:52:19;10.40;;;5.60;;
10341;SDS011;5216;54.602;18.356;2023-04-24T15:54:46;9.13;;;5.68;;
10341;SDS011;5216;54.602;18.356;2023-04-24T15:57:12;6.93;;;5.93;;
10341;SDS011;5216;54.602;18.356;2023-04-24T15:59:39;6.20;;;5.07;;
10341;SDS011;5216;54.602;18.356;2023-04-24T16:02:09;5.75;;;4.80;;
10341;SDS011;5216;54.602;18.356;2023-04-24T16:04:37;7.53;;;5.43;;
10341;SDS011;5216;54.602;18.356;2023-04-24T16:07:04;7.23;;;5.63;;
10341;SDS011;5216;54.602;18.356;2023-04-24T16:09:31;7.00;;;5.10;;
10341;SDS011;5216;54.602;18.356;2023-04-24T16:11:57;6.07;;;4.50;;
10341;SDS011;5216;54.602;18.356;2023-04-24T16:14:27;6.40;;;4.53;;
10341;SDS011;5216;54.602;18.356;2023-04-24T16:16:53;7.27;;;5.07;;
10341;SDS011;5216;54.602;18.356;2023-04-24T16:19:26;8.60;;;7.13;;